sensor_id;sensor_type;location;lat;lon;timestamp;pressure;altitude;pressure_sealevel;temperature;humidity
40117;BME280;25829;50.228;18.936;2023-02-13T00:02:19;100543.72;;;0.71;72.98
40117;BME280;25829;50.228;18.936;2023-02-13T00:05:20;100552.16;;;0.74;72.82
40117;BME280;25829;50.228;18.936;2023-02-13T00:08:20;100544.84;;;0.81;73.03
40117;BME280;25829;50.228;18.936;2023-02-13T00:11:21;100549.84;;;0.84;72.61
40117;BME280;25829;50.228;18.936;2023-02-13T00:14:22;100555.81;;;0.86;72.36
40117;BME280;25829;50.228;18.936;2023-02-13T00:17:23;100555.59;;;0.89;72.82
40117;BME280;25829;50.228;18.936;2023-02-13T00:20:24;100560.59;;;0.92;72.94
40117;BME280;25829;50.228;18.936;2023-02-13T00:23:25;100551.03;;;0.93;72.40
40117;BME280;25829;50.228;18.936;2023-02-13T00:26:26;100554.28;;;0.96;72.74
40117;BME280;25829;50.228;18.936;2023-02-13T00:29:27;100553.19;;;1.00;72.14
40117;BME280;25829;50.228;18.936;2023-02-13T00:32:28;100547.97;;;1.00;72.55
40117;BME280;25829;50.228;18.936;2023-02-13T00:35:28;100544.56;;;1.00;72.22
40117;BME280;25829;50.228;18.936;2023-02-13T00:38:30;100540.00;;;1.03;72.13
40117;BME280;25829;50.228;18.936;2023-02-13T00:41:31;100553.06;;;1.02;71.97
40117;BME280;25829;50.228;18.936;2023-02-13T00:44:32;100550.38;;;0.89;72.16
40117;BME280;25829;50.228;18.936;2023-02-13T00:47:35;100535.91;;;0.85;72.93
40117;BME280;25829;50.228;18.936;2023-02-13T00:50:35;100540.94;;;0.88;72.82
40117;BME280;25829;50.228;18.936;2023-02-13T00:53:37;100543.44;;;0.90;72.83
40117;BME280;25829;50.228;18.936;2023-02-13T00:56:37;100538.91;;;0.93;73.20
40117;BME280;25829;50.228;18.936;2023-02-13T00:59:39;100543.81;;;0.98;73.06
40117;BME280;25829;50.228;18.936;2023-02-13T01:02:40;100542.69;;;1.02;72.59
40117;BME280;25829;50.228;18.936;2023-02-13T01:05:41;100544.63;;;0.98;73.00
40117;BME280;25829;50.228;18.936;2023-02-13T01:08:42;100539.53;;;0.97;73.11
40117;BME280;25829;50.228;18.936;2023-02-13T01:11:43;100535.72;;;1.02;72.97
40117;BME280;25829;50.228;18.936;2023-02-13T01:14:44;100527.72;;;1.05;72.68
40117;BME280;25829;50.228;18.936;2023-02-13T01:17:44;100531.97;;;1.06;72.77
40117;BME280;25829;50.228;18.936;2023-02-13T01:20:55;100532.84;;;1.07;72.47
40117;BME280;25829;50.228;18.936;2023-02-13T01:23:56;100527.72;;;1.05;73.31
40117;BME280;25829;50.228;18.936;2023-02-13T01:26:57;100528.47;;;1.07;73.00
40117;BME280;25829;50.228;18.936;2023-02-13T01:29:58;100509.16;;;1.12;72.79
40117;BME280;25829;50.228;18.936;2023-02-13T01:32:59;100514.16;;;1.15;72.99
40117;BME280;25829;50.228;18.936;2023-02-13T01:36:05;100514.81;;;1.18;72.93
40117;BME280;25829;50.228;18.936;2023-02-13T01:39:06;100515.81;;;1.16;72.53
40117;BME280;25829;50.228;18.936;2023-02-13T01:42:20;100508.22;;;1.13;72.64
40117;BME280;25829;50.228;18.936;2023-02-13T01:45:29;100510.34;;;1.06;73.29
40117;BME280;25829;50.228;18.936;2023-02-13T01:48:30;100505.56;;;1.00;73.83
40117;BME280;25829;50.228;18.936;2023-02-13T01:51:34;100496.63;;;1.04;73.67
40117;BME280;25829;50.228;18.936;2023-02-13T01:54:36;100496.22;;;1.10;73.44
40117;BME280;25829;50.228;18.936;2023-02-13T01:57:38;100507.19;;;1.15;73.25
40117;BME280;25829;50.228;18.936;2023-02-13T02:00:41;100498.38;;;1.18;73.76
40117;BME280;25829;50.228;18.936;2023-02-13T02:03:53;100494.44;;;1.25;73.92
40117;BME280;25829;50.228;18.936;2023-02-13T02:06:57;100498.41;;;1.30;73.70
40117;BME280;25829;50.228;18.936;2023-02-13T02:10:08;100497.06;;;1.38;74.41
40117;BME280;25829;50.228;18.936;2023-02-13T02:13:17;100487.13;;;1.44;73.70
40117;BME280;25829;50.228;18.936;2023-02-13T02:16:20;100485.06;;;1.49;74.27
40117;BME280;25829;50.228;18.936;2023-02-13T02:19:40;100482.16;;;1.54;74.11
40117;BME280;25829;50.228;18.936;2023-02-13T02:42:48;100484.38;;;1.60;75.15
40117;BME280;25829;50.228;18.936;2023-02-13T02:46:10;100478.41;;;1.58;75.10
40117;BME280;25829;50.228;18.936;2023-02-13T02:49:14;100484.38;;;1.60;75.08
40117;BME280;25829;50.228;18.936;2023-02-13T02:52:51;100488.34;;;1.66;75.41
40117;BME280;25829;50.228;18.936;2023-02-13T02:59:24;100489.28;;;1.77;75.33
40117;BME280;25829;50.228;18.936;2023-02-13T03:02:45;100487.00;;;1.86;74.94
40117;BME280;25829;50.228;18.936;2023-02-13T03:06:13;100486.91;;;1.87;74.95
40117;BME280;25829;50.228;18.936;2023-02-13T03:09:21;100493.59;;;1.91;74.98
40117;BME280;25829;50.228;18.936;2023-02-13T03:12:50;100485.66;;;1.93;75.51
40117;BME280;25829;50.228;18.936;2023-02-13T03:16:22;100492.34;;;1.97;75.45
40117;BME280;25829;50.228;18.936;2023-02-13T03:23:52;100489.03;;;2.08;75.51
40117;BME280;25829;50.228;18.936;2023-02-13T03:31:14;100496.41;;;2.14;75.16
40117;BME280;25829;50.228;18.936;2023-02-13T03:34:22;100492.97;;;2.13;75.28
40117;BME280;25829;50.228;18.936;2023-02-13T03:37:33;100480.56;;;2.17;75.13
40117;BME280;25829;50.228;18.936;2023-02-13T03:41:02;100485.78;;;2.17;75.07
40117;BME280;25829;50.228;18.936;2023-02-13T03:44:37;100491.00;;;2.17;74.89
40117;BME280;25829;50.228;18.936;2023-02-13T03:47:43;100483.19;;;2.17;75.42
40117;BME280;25829;50.228;18.936;2023-02-13T03:50:44;100482.16;;;2.19;75.54
40117;BME280;25829;50.228;18.936;2023-02-13T03:53:48;100482.88;;;2.21;75.32
40117;BME280;25829;50.228;18.936;2023-02-13T03:56:50;100490.59;;;2.23;75.49
40117;BME280;25829;50.228;18.936;2023-02-13T04:00:14;100482.66;;;2.24;75.44
40117;BME280;25829;50.228;18.936;2023-02-13T04:06:35;100484.13;;;2.29;75.66
40117;BME280;25829;50.228;18.936;2023-02-13T04:09:40;100492.66;;;2.31;75.35
40117;BME280;25829;50.228;18.936;2023-02-13T04:16:00;100482.03;;;2.34;75.77
40117;BME280;25829;50.228;18.936;2023-02-13T04:19:04;100478.59;;;2.33;75.87
40117;BME280;25829;50.228;18.936;2023-02-13T04:22:05;100483.69;;;2.35;75.89
40117;BME280;25829;50.228;18.936;2023-02-13T04:25:06;100486.22;;;2.36;75.88
40117;BME280;25829;50.228;18.936;2023-02-13T04:28:06;100481.84;;;2.37;75.64
40117;BME280;25829;50.228;18.936;2023-02-13T04:31:07;100473.59;;;2.30;75.86
40117;BME280;25829;50.228;18.936;2023-02-13T04:34:08;100482.25;;;2.31;76.20
40117;BME280;25829;50.228;18.936;2023-02-13T04:37:09;100481.22;;;2.33;76.21
40117;BME280;25829;50.228;18.936;2023-02-13T04:40:10;100476.50;;;2.38;76.08
40117;BME280;25829;50.228;18.936;2023-02-13T04:43:10;100477.16;;;2.42;76.21
40117;BME280;25829;50.228;18.936;2023-02-13T04:46:11;100479.53;;;2.45;75.82
40117;BME280;25829;50.228;18.936;2023-02-13T04:49:12;100481.91;;;2.48;75.89
40117;BME280;25829;50.228;18.936;2023-02-13T04:52:13;100487.88;;;2.50;76.05
40117;BME280;25829;50.228;18.936;2023-02-13T04:55:14;100481.84;;;2.49;75.71
40117;BME280;25829;50.228;18.936;2023-02-13T04:58:15;100474.09;;;2.48;75.56
40117;BME280;25829;50.228;18.936;2023-02-13T05:01:16;100482.66;;;2.50;75.78
40117;BME280;25829;50.228;18.936;2023-02-13T05:04:17;100485.97;;;2.52;75.81
40117;BME280;25829;50.228;18.936;2023-02-13T05:07:18;100484.00;;;2.56;76.12
40117;BME280;25829;50.228;18.936;2023-02-13T05:10:19;100478.78;;;2.56;75.97
40117;BME280;25829;50.228;18.936;2023-02-13T05:13:20;100481.19;;;2.59;75.56
40117;BME280;25829;50.228;18.936;2023-02-13T05:16:21;100478.56;;;2.59;75.70
40117;BME280;25829;50.228;18.936;2023-02-13T05:19:21;100478.47;;;2.60;75.89
40117;BME280;25829;50.228;18.936;2023-02-13T05:22:22;100472.44;;;2.60;75.26
40117;BME280;25829;50.228;18.936;2023-02-13T05:25:44;100468.06;;;2.60;75.76
40117;BME280;25829;50.228;18.936;2023-02-13T05:28:45;100477.53;;;2.61;75.67
40117;BME280;25829;50.228;18.936;2023-02-13T05:32:04;100479.44;;;2.59;75.58
40117;BME280;25829;50.228;18.936;2023-02-13T05:35:05;100481.28;;;2.57;75.78
40117;BME280;25829;50.228;18.936;2023-02-13T05:38:06;100471.69;;;2.58;75.49
40117;BME280;25829;50.228;18.936;2023-02-13T05:41:06;100470.13;;;2.55;75.83
40117;BME280;25829;50.228;18.936;2023-02-13T05:44:07;100473.81;;;2.53;76.21
40117;BME280;25829;50.228;18.936;2023-02-13T05:47:08;100481.00;;;2.49;75.93
40117;BME280;25829;50.228;18.936;2023-02-13T05:50:09;100472.31;;;2.48;76.05
40117;BME280;25829;50.228;18.936;2023-02-13T05:53:10;100471.28;;;2.51;76.19
40117;BME280;25829;50.228;18.936;2023-02-13T05:56:11;100479.03;;;2.53;75.94
40117;BME280;25829;50.228;18.936;2023-02-13T05:59:12;100471.91;;;2.55;76.01
40117;BME280;25829;50.228;18.936;2023-02-13T06:02:13;100478.06;;;2.54;75.50
40117;BME280;25829;50.228;18.936;2023-02-13T06:05:14;100479.09;;;2.51;75.97
40117;BME280;25829;50.228;18.936;2023-02-13T06:08:14;100487.75;;;2.51;76.07
40117;BME280;25829;50.228;18.936;2023-02-13T06:11:15;100483.69;;;2.47;75.70
40117;BME280;25829;50.228;18.936;2023-02-13T06:14:16;100494.44;;;2.43;75.81
40117;BME280;25829;50.228;18.936;2023-02-13T06:17:16;100493.63;;;2.42;76.20
40117;BME280;25829;50.228;18.936;2023-02-13T06:20:17;100493.28;;;2.47;75.89
40117;BME280;25829;50.228;18.936;2023-02-13T06:23:18;100496.63;;;2.49;75.60
40117;BME280;25829;50.228;18.936;2023-02-13T06:26:19;100500.78;;;2.51;75.46
40117;BME280;25829;50.228;18.936;2023-02-13T06:29:20;100492.03;;;2.53;75.09
40117;BME280;25829;50.228;18.936;2023-02-13T06:32:21;100493.78;;;2.52;75.29
40117;BME280;25829;50.228;18.936;2023-02-13T06:35:21;100487.97;;;2.48;75.02
40117;BME280;25829;50.228;18.936;2023-02-13T06:38:22;100492.56;;;2.45;74.79
40117;BME280;25829;50.228;18.936;2023-02-13T06:41:23;100494.25;;;2.33;74.47
40117;BME280;25829;50.228;18.936;2023-02-13T06:44:24;100497.44;;;2.24;75.21
40117;BME280;25829;50.228;18.936;2023-02-13T06:47:25;100503.50;;;2.24;75.45
40117;BME280;25829;50.228;18.936;2023-02-13T06:50:26;100499.03;;;2.26;75.03
40117;BME280;25829;50.228;18.936;2023-02-13T06:53:30;100493.50;;;2.31;75.13
40117;BME280;25829;50.228;18.936;2023-02-13T06:56:31;100492.78;;;2.29;75.14
40117;BME280;25829;50.228;18.936;2023-02-13T06:59:32;100500.47;;;2.31;75.65
40117;BME280;25829;50.228;18.936;2023-02-13T07:02:33;100494.97;;;2.35;75.57
40117;BME280;25829;50.228;18.936;2023-02-13T07:05:34;100507.47;;;2.43;75.34
40117;BME280;25829;50.228;18.936;2023-02-13T07:08:35;100503.72;;;2.47;75.66
40117;BME280;25829;50.228;18.936;2023-02-13T07:11:35;100509.88;;;2.46;75.57
40117;BME280;25829;50.228;18.936;2023-02-13T07:14:39;100507.97;;;2.48;75.84
40117;BME280;25829;50.228;18.936;2023-02-13T07:25:33;100498.78;;;2.55;75.83
40117;BME280;25829;50.228;18.936;2023-02-13T07:28:34;100499.31;;;2.60;75.94
40117;BME280;25829;50.228;18.936;2023-02-13T07:31:35;100496.50;;;2.63;75.97
40117;BME280;25829;50.228;18.936;2023-02-13T07:34:36;100495.34;;;2.67;76.01
40117;BME280;25829;50.228;18.936;2023-02-13T07:37:37;100495.75;;;2.74;76.24
40117;BME280;25829;50.228;18.936;2023-02-13T07:40:38;100506.25;;;2.85;76.13
40117;BME280;25829;50.228;18.936;2023-02-13T07:43:38;100502.06;;;2.95;76.10
40117;BME280;25829;50.228;18.936;2023-02-13T07:46:39;100498.41;;;2.98;76.33
40117;BME280;25829;50.228;18.936;2023-02-13T07:49:40;100495.03;;;3.09;76.56
40117;BME280;25829;50.228;18.936;2023-02-13T07:52:41;100493.31;;;3.20;76.34
40117;BME280;25829;50.228;18.936;2023-02-13T07:55:41;100502.06;;;3.32;76.19
40117;BME280;25829;50.228;18.936;2023-02-13T07:58:45;100493.50;;;3.43;76.38
40117;BME280;25829;50.228;18.936;2023-02-13T08:01:46;100498.88;;;3.53;76.40
40117;BME280;25829;50.228;18.936;2023-02-13T08:04:47;100500.78;;;3.62;76.37
40117;BME280;25829;50.228;18.936;2023-02-13T08:07:48;100483.63;;;3.71;76.10
40117;BME280;25829;50.228;18.936;2023-02-13T08:10:48;100491.00;;;3.77;76.00
40117;BME280;25829;50.228;18.936;2023-02-13T08:14:08;100484.94;;;3.76;75.88
40117;BME280;25829;50.228;18.936;2023-02-13T08:17:09;100491.72;;;3.79;76.30
40117;BME280;25829;50.228;18.936;2023-02-13T08:20:10;100487.94;;;3.83;76.01
40117;BME280;25829;50.228;18.936;2023-02-13T08:23:11;100493.44;;;3.91;76.03
40117;BME280;25829;50.228;18.936;2023-02-13T08:26:12;100500.69;;;3.99;75.70
40117;BME280;25829;50.228;18.936;2023-02-13T08:29:13;100508.28;;;4.02;76.00
40117;BME280;25829;50.228;18.936;2023-02-13T08:32:13;100496.66;;;4.06;75.73
40117;BME280;25829;50.228;18.936;2023-02-13T08:35:14;100493.81;;;4.09;75.50
40117;BME280;25829;50.228;18.936;2023-02-13T08:38:15;100497.03;;;4.12;75.54
40117;BME280;25829;50.228;18.936;2023-02-13T08:41:16;100506.41;;;4.15;75.20
40117;BME280;25829;50.228;18.936;2023-02-13T08:44:23;100496.56;;;4.19;75.56
40117;BME280;25829;50.228;18.936;2023-02-13T08:47:23;100497.03;;;4.24;75.42
40117;BME280;25829;50.228;18.936;2023-02-13T08:50:25;100508.91;;;4.28;75.66
40117;BME280;25829;50.228;18.936;2023-02-13T08:53:26;100504.53;;;4.28;75.17
40117;BME280;25829;50.228;18.936;2023-02-13T08:56:27;100502.75;;;4.29;75.50
40117;BME280;25829;50.228;18.936;2023-02-13T08:59:28;100492.19;;;4.30;75.55
40117;BME280;25829;50.228;18.936;2023-02-13T09:02:32;100490.16;;;4.34;75.42
40117;BME280;25829;50.228;18.936;2023-02-13T09:05:33;100495.84;;;4.39;75.64
40117;BME280;25829;50.228;18.936;2023-02-13T09:08:34;100502.53;;;4.43;75.36
40117;BME280;25829;50.228;18.936;2023-02-13T09:11:35;100495.53;;;4.44;75.94
40117;BME280;25829;50.228;18.936;2023-02-13T09:14:36;100492.19;;;4.41;75.32
40117;BME280;25829;50.228;18.936;2023-02-13T09:17:38;100500.03;;;4.41;75.56
40117;BME280;25829;50.228;18.936;2023-02-13T09:20:39;100493.97;;;4.41;75.38
40117;BME280;25829;50.228;18.936;2023-02-13T09:23:40;100502.41;;;4.45;75.72
40117;BME280;25829;50.228;18.936;2023-02-13T09:26:41;100491.81;;;4.46;75.79
40117;BME280;25829;50.228;18.936;2023-02-13T09:29:43;100501.22;;;4.49;76.02
40117;BME280;25829;50.228;18.936;2023-02-13T09:32:47;100506.81;;;4.55;76.27
40117;BME280;25829;50.228;18.936;2023-02-13T09:35:48;100510.63;;;4.62;76.26
40117;BME280;25829;50.228;18.936;2023-02-13T09:38:57;100512.75;;;4.69;76.11
40117;BME280;25829;50.228;18.936;2023-02-13T09:41:59;100512.38;;;4.73;76.00
40117;BME280;25829;50.228;18.936;2023-02-13T09:45:16;100499.91;;;4.77;76.18
40117;BME280;25829;50.228;18.936;2023-02-13T09:48:29;100501.81;;;4.75;76.36
40117;BME280;25829;50.228;18.936;2023-02-13T09:51:30;100498.72;;;4.70;76.47
40117;BME280;25829;50.228;18.936;2023-02-13T09:54:31;100494.91;;;4.74;76.25
40117;BME280;25829;50.228;18.936;2023-02-13T09:57:35;100500.50;;;4.80;76.43
40117;BME280;25829;50.228;18.936;2023-02-13T10:00:46;100496.34;;;4.89;76.44
40117;BME280;25829;50.228;18.936;2023-02-13T10:07:57;100493.69;;;5.00;76.87
40117;BME280;25829;50.228;18.936;2023-02-13T10:17:38;100483.44;;;5.08;76.49
40117;BME280;25829;50.228;18.936;2023-02-13T10:20:46;100483.81;;;5.04;76.04
40117;BME280;25829;50.228;18.936;2023-02-13T10:24:11;100474.31;;;5.03;75.94
40117;BME280;25829;50.228;18.936;2023-02-13T10:27:42;100478.84;;;5.01;75.61
40117;BME280;25829;50.228;18.936;2023-02-13T10:30:58;100461.13;;;4.93;76.02
40117;BME280;25829;50.228;18.936;2023-02-13T10:34:09;100468.41;;;4.89;76.45
40117;BME280;25829;50.228;18.936;2023-02-13T10:37:18;100456.38;;;4.87;76.23
40117;BME280;25829;50.228;18.936;2023-02-13T10:40:20;100459.13;;;4.85;76.61
40117;BME280;25829;50.228;18.936;2023-02-13T10:43:26;100451.28;;;4.85;76.01
40117;BME280;25829;50.228;18.936;2023-02-13T11:10:27;100432.16;;;4.74;76.58
40117;BME280;25829;50.228;18.936;2023-02-13T11:17:20;100418.13;;;4.86;76.54
40117;BME280;25829;50.228;18.936;2023-02-13T11:20:34;100408.47;;;4.86;76.63
40117;BME280;25829;50.228;18.936;2023-02-13T11:23:41;100408.09;;;4.91;76.91
40117;BME280;25829;50.228;18.936;2023-02-13T11:26:52;100410.63;;;4.93;76.76
40117;BME280;25829;50.228;18.936;2023-02-13T11:29:58;100413.00;;;4.96;77.08
40117;BME280;25829;50.228;18.936;2023-02-13T11:36:08;100401.31;;;5.00;76.98
40117;BME280;25829;50.228;18.936;2023-02-13T11:39:20;100399.03;;;5.06;76.93
40117;BME280;25829;50.228;18.936;2023-02-13T11:42:41;100396.41;;;5.06;77.30
40117;BME280;25829;50.228;18.936;2023-02-13T11:45:45;100404.84;;;5.10;76.84
40117;BME280;25829;50.228;18.936;2023-02-13T11:52:30;100397.00;;;5.10;77.24
40117;BME280;25829;50.228;18.936;2023-02-13T11:55:39;100378.44;;;5.13;76.85
40117;BME280;25829;50.228;18.936;2023-02-13T11:59:03;100383.44;;;5.16;77.12
40117;BME280;25829;50.228;18.936;2023-02-13T12:02:42;100377.94;;;5.19;77.06
40117;BME280;25829;50.228;18.936;2023-02-13T12:09:13;100382.06;;;5.22;77.07
40117;BME280;25829;50.228;18.936;2023-02-13T12:16:13;100377.22;;;5.17;77.26
40117;BME280;25829;50.228;18.936;2023-02-13T12:19:34;100376.50;;;5.15;76.98
40117;BME280;25829;50.228;18.936;2023-02-13T12:36:20;100376.59;;;4.93;77.76
40117;BME280;25829;50.228;18.936;2023-02-13T12:39:25;100378.50;;;4.91;77.82
40117;BME280;25829;50.228;18.936;2023-02-13T12:46:26;100378.31;;;4.82;77.22
40117;BME280;25829;50.228;18.936;2023-02-13T12:49:48;100381.41;;;4.76;77.22
40117;BME280;25829;50.228;18.936;2023-02-13T12:56:50;100367.28;;;4.68;78.11
40117;BME280;25829;50.228;18.936;2023-02-13T13:11:03;100364.31;;;4.72;78.35
40117;BME280;25829;50.228;18.936;2023-02-13T13:17:34;100374.63;;;4.74;78.22
40117;BME280;25829;50.228;18.936;2023-02-13T13:21:04;100373.69;;;4.75;78.28
40117;BME280;25829;50.228;18.936;2023-02-13T13:28:18;100367.72;;;4.84;78.86
40117;BME280;25829;50.228;18.936;2023-02-13T13:31:35;100365.22;;;4.82;78.36
40117;BME280;25829;50.228;18.936;2023-02-13T13:34:37;100366.78;;;4.85;78.19
40117;BME280;25829;50.228;18.936;2023-02-13T13:37:47;100372.81;;;4.85;78.50
40117;BME280;25829;50.228;18.936;2023-02-13T13:41:40;100363.63;;;4.91;78.17
40117;BME280;25829;50.228;18.936;2023-02-13T13:51:34;100369.53;;;5.04;78.14
40117;BME280;25829;50.228;18.936;2023-02-13T13:54:36;100361.84;;;5.03;78.40
40117;BME280;25829;50.228;18.936;2023-02-13T14:00:39;100364.13;;;4.96;78.52
40117;BME280;25829;50.228;18.936;2023-02-13T14:03:41;100363.03;;;4.99;78.71
40117;BME280;25829;50.228;18.936;2023-02-13T14:09:48;100374.97;;;4.92;78.70
40117;BME280;25829;50.228;18.936;2023-02-13T14:13:00;100368.19;;;4.89;78.44
40117;BME280;25829;50.228;18.936;2023-02-13T14:16:10;100364.84;;;4.87;78.46
40117;BME280;25829;50.228;18.936;2023-02-13T14:22:34;100369.97;;;4.88;78.26
40117;BME280;25829;50.228;18.936;2023-02-13T14:25:36;100364.97;;;4.85;78.41
40117;BME280;25829;50.228;18.936;2023-02-13T14:28:40;100374.28;;;4.78;77.68
40117;BME280;25829;50.228;18.936;2023-02-13T14:32:00;100368.56;;;4.73;77.54
40117;BME280;25829;50.228;18.936;2023-02-13T14:35:27;100361.25;;;4.67;77.02
40117;BME280;25829;50.228;18.936;2023-02-13T14:38:37;100362.78;;;4.58;77.18
40117;BME280;25829;50.228;18.936;2023-02-13T14:41:58;100360.41;;;4.55;76.74
40117;BME280;25829;50.228;18.936;2023-02-13T14:45:01;100363.41;;;4.51;77.42
40117;BME280;25829;50.228;18.936;2023-02-13T14:48:07;100365.78;;;4.54;76.67
40117;BME280;25829;50.228;18.936;2023-02-13T14:51:35;100360.41;;;4.55;76.82
40117;BME280;25829;50.228;18.936;2023-02-13T14:54:50;100354.50;;;4.53;76.33
40117;BME280;25829;50.228;18.936;2023-02-13T14:58:04;100353.53;;;4.54;76.96
40117;BME280;25829;50.228;18.936;2023-02-13T15:01:31;100345.47;;;4.57;76.99
40117;BME280;25829;50.228;18.936;2023-02-13T15:04:40;100351.13;;;4.62;76.82
40117;BME280;25829;50.228;18.936;2023-02-13T15:07:51;100340.69;;;4.62;76.21
40117;BME280;25829;50.228;18.936;2023-02-13T15:10:55;100350.31;;;4.62;76.38
40117;BME280;25829;50.228;18.936;2023-02-13T15:13:57;100337.22;;;4.62;76.42
40117;BME280;25829;50.228;18.936;2023-02-13T15:17:14;100341.41;;;4.64;76.36
40117;BME280;25829;50.228;18.936;2023-02-13T15:20:29;100347.22;;;4.68;76.08
40117;BME280;25829;50.228;18.936;2023-02-13T15:23:35;100339.47;;;4.67;76.05
40117;BME280;25829;50.228;18.936;2023-02-13T15:26:40;100342.09;;;4.67;76.46
40117;BME280;25829;50.228;18.936;2023-02-13T15:33:46;100337.72;;;4.56;76.18
40117;BME280;25829;50.228;18.936;2023-02-13T15:36:55;100326.00;;;4.50;76.29
40117;BME280;25829;50.228;18.936;2023-02-13T15:40:16;100327.66;;;4.40;75.68
40117;BME280;25829;50.228;18.936;2023-02-13T15:43:27;100338.50;;;4.24;75.89
40117;BME280;25829;50.228;18.936;2023-02-13T15:46:32;100337.31;;;4.17;76.12
40117;BME280;25829;50.228;18.936;2023-02-13T15:49:38;100339.34;;;4.13;76.43
40117;BME280;25829;50.228;18.936;2023-02-13T15:52:39;100335.19;;;4.11;76.33
40117;BME280;25829;50.228;18.936;2023-02-13T15:55:53;100326.75;;;4.07;76.25
40117;BME280;25829;50.228;18.936;2023-02-13T15:58:55;100340.19;;;4.03;76.20
40117;BME280;25829;50.228;18.936;2023-02-13T16:01:58;100348.38;;;3.98;76.05
40117;BME280;25829;50.228;18.936;2023-02-13T16:05:01;100349.53;;;3.94;75.63
40117;BME280;25829;50.228;18.936;2023-02-13T16:08:02;100345.63;;;3.88;76.04
40117;BME280;25829;50.228;18.936;2023-02-13T16:14:20;100341.25;;;3.78;75.58
40117;BME280;25829;50.228;18.936;2023-02-13T16:17:35;100359.84;;;3.73;75.53
40117;BME280;25829;50.228;18.936;2023-02-13T16:20:37;100353.81;;;3.73;75.73
40117;BME280;25829;50.228;18.936;2023-02-13T16:23:39;100347.38;;;3.77;75.82
40117;BME280;25829;50.228;18.936;2023-02-13T16:26:43;100356.91;;;3.78;75.61
40117;BME280;25829;50.228;18.936;2023-02-13T16:42:18;100351.41;;;3.69;75.51
40117;BME280;25829;50.228;18.936;2023-02-13T16:45:22;100355.00;;;3.68;75.45
40117;BME280;25829;50.228;18.936;2023-02-13T16:48:23;100357.81;;;3.65;75.53
40117;BME280;25829;50.228;18.936;2023-02-13T16:57:44;100368.53;;;3.74;75.47
40117;BME280;25829;50.228;18.936;2023-02-13T17:00:49;100363.91;;;3.77;75.40
40117;BME280;25829;50.228;18.936;2023-02-13T17:03:49;100353.47;;;3.77;75.18
40117;BME280;25829;50.228;18.936;2023-02-13T17:06:54;100342.31;;;3.75;75.01
40117;BME280;25829;50.228;18.936;2023-02-13T17:10:00;100338.88;;;3.75;75.25
40117;BME280;25829;50.228;18.936;2023-02-13T17:16:09;100336.13;;;3.76;75.24
40117;BME280;25829;50.228;18.936;2023-02-13T17:23:05;100334.47;;;3.75;75.49
40117;BME280;25829;50.228;18.936;2023-02-13T17:26:06;100331.13;;;3.73;75.11
40117;BME280;25829;50.228;18.936;2023-02-13T17:29:07;100320.94;;;3.70;75.23
40117;BME280;25829;50.228;18.936;2023-02-13T17:32:15;100322.25;;;3.64;75.12
40117;BME280;25829;50.228;18.936;2023-02-13T17:35:17;100321.28;;;3.65;75.43
40117;BME280;25829;50.228;18.936;2023-02-13T17:38:18;100317.72;;;3.66;75.38
40117;BME280;25829;50.228;18.936;2023-02-13T17:41:20;100313.13;;;3.70;75.52
40117;BME280;25829;50.228;18.936;2023-02-13T17:44:21;100315.59;;;3.72;74.96
40117;BME280;25829;50.228;18.936;2023-02-13T17:47:23;100324.16;;;3.74;75.17
40117;BME280;25829;50.228;18.936;2023-02-13T17:50:26;100332.00;;;3.74;75.24
40117;BME280;25829;50.228;18.936;2023-02-13T17:53:48;100323.19;;;3.75;75.42
40117;BME280;25829;50.228;18.936;2023-02-13T17:56:49;100313.72;;;3.74;75.43
40117;BME280;25829;50.228;18.936;2023-02-13T17:59:50;100313.72;;;3.74;74.84
40117;BME280;25829;50.228;18.936;2023-02-13T18:02:51;100304.94;;;3.75;75.14
40117;BME280;25829;50.228;18.936;2023-02-13T18:05:52;100314.66;;;3.73;75.01
40117;BME280;25829;50.228;18.936;2023-02-13T18:08:54;100327.94;;;3.69;74.94
40117;BME280;25829;50.228;18.936;2023-02-13T18:11:54;100316.56;;;3.71;75.03
40117;BME280;25829;50.228;18.936;2023-02-13T18:27:10;100271.91;;;3.62;74.91
40117;BME280;25829;50.228;18.936;2023-02-13T18:30:13;100300.03;;;3.59;75.17
40117;BME280;25829;50.228;18.936;2023-02-13T18:33:16;100322.59;;;3.60;75.08
40117;BME280;25829;50.228;18.936;2023-02-13T18:36:17;100325.91;;;3.62;75.23
40117;BME280;25829;50.228;18.936;2023-02-13T18:39:17;100334.56;;;3.62;75.50
40117;BME280;25829;50.228;18.936;2023-02-13T18:42:18;100332.69;;;3.64;74.99
40117;BME280;25829;50.228;18.936;2023-02-13T18:45:19;100335.16;;;3.66;75.41
40117;BME280;25829;50.228;18.936;2023-02-13T18:48:20;100335.88;;;3.68;75.23
40117;BME280;25829;50.228;18.936;2023-02-13T18:51:21;100346.34;;;3.68;75.06
40117;BME280;25829;50.228;18.936;2023-02-13T18:54:22;100336.00;;;3.66;75.38
40117;BME280;25829;50.228;18.936;2023-02-13T18:57:23;100344.56;;;3.68;75.55
40117;BME280;25829;50.228;18.936;2023-02-13T19:14:45;100350.13;;;3.64;75.70
40117;BME280;25829;50.228;18.936;2023-02-13T19:17:47;100356.03;;;3.66;75.71
40117;BME280;25829;50.228;18.936;2023-02-13T19:20:47;100360.34;;;3.67;75.73
40117;BME280;25829;50.228;18.936;2023-02-13T19:23:49;100366.25;;;3.69;75.88
40117;BME280;25829;50.228;18.936;2023-02-13T19:26:50;100358.44;;;3.69;75.81
40117;BME280;25829;50.228;18.936;2023-02-13T19:29:51;100368.03;;;3.68;75.80
40117;BME280;25829;50.228;18.936;2023-02-13T19:32:53;100377.06;;;3.64;75.83
40117;BME280;25829;50.228;18.936;2023-02-13T19:36:01;100373.38;;;3.67;75.91
40117;BME280;25829;50.228;18.936;2023-02-13T19:39:04;100369.00;;;3.67;75.87
40117;BME280;25829;50.228;18.936;2023-02-13T19:42:06;100370.66;;;3.68;75.96
40117;BME280;25829;50.228;18.936;2023-02-13T20:16:09;100378.09;;;3.62;76.29